New Franken, Wisconsin
Current Conditions -  °F | °C
As of 7:53 AM on Monday 24 Nov 2014 (Local Time) from KGRB Reporting Station
Haze Haze  
Wind Chill:   Ceiling: 1400
Heat Index:   Visibility: 6mi
Dew Point:   Wind: 7mph
Humidity: 96%   Direction: 280°W
Pressure: 29.03"   Gusts: NA
Location:  44.53°N, 87.83°W
Report Text: KGRB 241353Z 28006KT 6SM BR OVC014 05/04 A2903 RMK AO2 SLP833 T00500044
Loading
Personal Weather Stations






























Interactive Weather Map New forecast layout! Learn more

10-Day Weather Forecast

Advertisements
Track Severe Weather on mobile